sensor_id;sensor_type;location;lat;lon;timestamp;pressure;altitude;pressure_sealevel;temperature;humidity
42003;BME280;27693;50.506;30.832;2022-12-18T00:00:15;99905.09;;;-1.55;100.00
42003;BME280;27693;50.506;30.832;2022-12-18T00:01:21;99919.56;;;-1.54;100.00
42003;BME280;27693;50.506;30.832;2022-12-18T00:02:24;99917.08;;;-1.45;100.00
42003;BME280;27693;50.506;30.832;2022-12-18T00:03:26;99918.83;;;-1.34;100.00
42003;BME280;27693;50.506;30.832;2022-12-18T00:04:28;99918.86;;;-1.31;100.00
42003;BME280;27693;50.506;30.832;2022-12-18T00:05:30;99927.36;;;-1.32;100.00
42003;BME280;27693;50.506;30.832;2022-12-18T00:06:33;99942.56;;;-1.48;100.00
42003;BME280;27693;50.506;30.832;2022-12-18T00:07:37;99935.70;;;-1.55;100.00
42003;BME280;27693;50.506;30.832;2022-12-18T00:08:39;99928.93;;;-1.50;100.00
42003;BME280;27693;50.506;30.832;2022-12-18T00:09:41;99935.82;;;-1.39;100.00
42003;BME280;27693;50.506;30.832;2022-12-18T00:10:46;99925.58;;;-1.42;100.00
42003;BME280;27693;50.506;30.832;2022-12-18T00:11:49;99923.06;;;-1.41;100.00
42003;BME280;27693;50.506;30.832;2022-12-18T00:12:51;99942.64;;;-1.38;100.00
42003;BME280;27693;50.506;30.832;2022-12-18T00:13:55;99941.84;;;-1.30;100.00
42003;BME280;27693;50.506;30.832;2022-12-18T00:14:57;99928.16;;;-1.39;99.67
42003;BME280;27693;50.506;30.832;2022-12-18T00:16:14;99945.23;;;-1.31;99.62
42003;BME280;27693;50.506;30.832;2022-12-18T00:17:16;99945.20;;;-1.35;99.33
42003;BME280;27693;50.506;30.832;2022-12-18T00:18:18;99956.16;;;-1.52;98.82
42003;BME280;27693;50.506;30.832;2022-12-18T00:19:22;99948.51;;;-1.49;98.97
42003;BME280;27693;50.506;30.832;2022-12-18T00:20:24;99945.95;;;-1.49;98.94
42003;BME280;27693;50.506;30.832;2022-12-18T00:21:27;99929.00;;;-1.40;99.07
42003;BME280;27693;50.506;30.832;2022-12-18T00:22:29;99932.28;;;-1.57;98.94
42003;BME280;27693;50.506;30.832;2022-12-18T00:23:34;99926.34;;;-1.54;99.30
42003;BME280;27693;50.506;30.832;2022-12-18T00:24:36;99934.88;;;-1.52;99.24
42003;BME280;27693;50.506;30.832;2022-12-18T00:25:38;99951.09;;;-1.46;99.20
42003;BME280;27693;50.506;30.832;2022-12-18T00:26:40;99968.97;;;-1.42;99.24
42003;BME280;27693;50.506;30.832;2022-12-18T00:27:42;99932.24;;;-1.63;98.93
42003;BME280;27693;50.506;30.832;2022-12-18T00:28:44;99951.81;;;-1.65;98.95
42003;BME280;27693;50.506;30.832;2022-12-18T00:29:48;99949.26;;;-1.65;98.93
42003;BME280;27693;50.506;30.832;2022-12-18T00:30:50;99956.03;;;-1.67;98.97
42003;BME280;27693;50.506;30.832;2022-12-18T00:31:52;99939.09;;;-1.59;98.99
42003;BME280;27693;50.506;30.832;2022-12-18T00:32:54;99951.06;;;-1.49;99.06
42003;BME280;27693;50.506;30.832;2022-12-18T00:33:56;99949.30;;;-1.56;98.72
42003;BME280;27693;50.506;30.832;2022-12-18T00:34:58;99950.14;;;-1.60;98.63
42003;BME280;27693;50.506;30.832;2022-12-18T00:36:06;99981.55;;;-1.67;98.40
42003;BME280;27693;50.506;30.832;2022-12-18T00:37:09;99977.28;;;-1.68;98.32
42003;BME280;27693;50.506;30.832;2022-12-18T00:38:11;99950.14;;;-1.62;98.48
42003;BME280;27693;50.506;30.832;2022-12-18T00:39:13;99952.73;;;-1.54;98.57
42003;BME280;27693;50.506;30.832;2022-12-18T00:40:15;99947.71;;;-1.41;98.64
42003;BME280;27693;50.506;30.832;2022-12-18T00:41:18;99962.06;;;-1.56;98.07
42003;BME280;27693;50.506;30.832;2022-12-18T00:42:22;99949.34;;;-1.53;98.38
42003;BME280;27693;50.506;30.832;2022-12-18T00:43:24;99950.27;;;-1.40;98.43
42003;BME280;27693;50.506;30.832;2022-12-18T00:44:27;99966.41;;;-1.44;98.00
42003;BME280;27693;50.506;30.832;2022-12-18T00:45:31;99970.67;;;-1.45;97.87
42003;BME280;27693;50.506;30.832;2022-12-18T00:46:33;99977.33;;;-1.61;97.72
42003;BME280;27693;50.506;30.832;2022-12-18T00:47:35;99969.63;;;-1.68;97.81
42003;BME280;27693;50.506;30.832;2022-12-18T00:48:37;99964.44;;;-1.79;97.95
42003;BME280;27693;50.506;30.832;2022-12-18T00:49:39;99960.20;;;-1.79;98.32
42003;BME280;27693;50.506;30.832;2022-12-18T00:50:41;99961.01;;;-1.81;98.37
42003;BME280;27693;50.506;30.832;2022-12-18T00:51:43;99964.43;;;-1.81;98.52
42003;BME280;27693;50.506;30.832;2022-12-18T00:52:46;99954.36;;;-1.65;98.91
42003;BME280;27693;50.506;30.832;2022-12-18T00:53:48;99974.83;;;-1.54;98.68
42003;BME280;27693;50.506;30.832;2022-12-18T00:54:49;99974.73;;;-1.68;98.14
42003;BME280;27693;50.506;30.832;2022-12-18T00:55:51;99954.27;;;-1.76;98.29
42003;BME280;27693;50.506;30.832;2022-12-18T00:56:53;99962.85;;;-1.66;98.44
42003;BME280;27693;50.506;30.832;2022-12-18T00:57:55;99959.52;;;-1.54;98.58
42003;BME280;27693;50.506;30.832;2022-12-18T00:58:57;99957.84;;;-1.54;98.30
42003;BME280;27693;50.506;30.832;2022-12-18T00:59:59;99963.82;;;-1.47;98.32
42003;BME280;27693;50.506;30.832;2022-12-18T01:01:00;99972.27;;;-1.54;97.97
42003;BME280;27693;50.506;30.832;2022-12-18T01:02:03;99962.80;;;-1.72;97.94
42003;BME280;27693;50.506;30.832;2022-12-18T01:03:05;99994.22;;;-1.75;98.00
42003;BME280;27693;50.506;30.832;2022-12-18T01:04:08;99975.47;;;-1.83;98.25
42003;BME280;27693;50.506;30.832;2022-12-18T01:05:11;99967.81;;;-1.83;98.48
42003;BME280;27693;50.506;30.832;2022-12-18T01:06:15;99975.52;;;-1.75;98.67
42003;BME280;27693;50.506;30.832;2022-12-18T01:07:17;99963.69;;;-1.67;98.78
42003;BME280;27693;50.506;30.832;2022-12-18T01:08:20;99974.81;;;-1.59;98.64
42003;BME280;27693;50.506;30.832;2022-12-18T01:09:22;99979.08;;;-1.56;98.04
42003;BME280;27693;50.506;30.832;2022-12-18T01:10:26;99979.08;;;-1.56;98.04
42003;BME280;27693;50.506;30.832;2022-12-18T01:11:30;99983.27;;;-1.66;97.89
42003;BME280;27693;50.506;30.832;2022-12-18T01:12:32;99989.25;;;-1.61;98.11
42003;BME280;27693;50.506;30.832;2022-12-18T01:13:35;99977.45;;;-1.43;98.52
42003;BME280;27693;50.506;30.832;2022-12-18T01:14:37;99986.61;;;-1.70;97.53
42003;BME280;27693;50.506;30.832;2022-12-18T01:15:39;99981.55;;;-1.69;97.92
42003;BME280;27693;50.506;30.832;2022-12-18T01:16:43;99978.16;;;-1.66;97.87
42003;BME280;27693;50.506;30.832;2022-12-18T01:17:45;99991.70;;;-1.73;97.69
42003;BME280;27693;50.506;30.832;2022-12-18T01:18:50;99988.17;;;-1.88;97.31
42003;BME280;27693;50.506;30.832;2022-12-18T01:19:51;99988.11;;;-1.94;97.28
42003;BME280;27693;50.506;30.832;2022-12-18T01:20:54;99995.03;;;-1.81;97.42
42003;BME280;27693;50.506;30.832;2022-12-18T01:21:56;99986.51;;;-1.83;97.04
42003;BME280;27693;50.506;30.832;2022-12-18T01:22:58;100005.19;;;-1.87;96.86
42003;BME280;27693;50.506;30.832;2022-12-18T01:24:02;100010.29;;;-1.87;97.09
42003;BME280;27693;50.506;30.832;2022-12-18T01:25:05;100008.53;;;-1.91;96.97
42003;BME280;27693;50.506;30.832;2022-12-18T01:26:09;100005.13;;;-1.93;97.04
42003;BME280;27693;50.506;30.832;2022-12-18T01:27:12;100010.29;;;-1.87;96.96
42003;BME280;27693;50.506;30.832;2022-12-18T01:28:14;99998.48;;;-1.75;97.36
42003;BME280;27693;50.506;30.832;2022-12-18T01:29:16;100008.68;;;-1.75;97.27
42003;BME280;27693;50.506;30.832;2022-12-18T01:30:18;100019.81;;;-1.67;97.28
42003;BME280;27693;50.506;30.832;2022-12-18T01:32:25;100022.20;;;-1.86;96.38
42003;BME280;27693;50.506;30.832;2022-12-18T01:33:27;100013.63;;;-1.91;96.64
42003;BME280;27693;50.506;30.832;2022-12-18T01:34:29;100017.05;;;-1.90;96.81
42003;BME280;27693;50.506;30.832;2022-12-18T01:35:31;100019.50;;;-2.00;97.02
42003;BME280;27693;50.506;30.832;2022-12-18T01:36:35;100016.13;;;-1.97;97.46
42003;BME280;27693;50.506;30.832;2022-12-18T01:37:38;100014.62;;;-1.77;98.02
42003;BME280;27693;50.506;30.832;2022-12-18T01:38:40;100018.92;;;-1.72;98.05
42003;BME280;27693;50.506;30.832;2022-12-18T01:39:42;100020.55;;;-1.78;98.00
42003;BME280;27693;50.506;30.832;2022-12-18T01:40:44;100020.69;;;-1.65;98.34
42003;BME280;27693;50.506;30.832;2022-12-18T01:41:46;100044.34;;;-1.82;97.88
42003;BME280;27693;50.506;30.832;2022-12-18T01:42:52;100022.16;;;-1.89;97.94
42003;BME280;27693;50.506;30.832;2022-12-18T01:43:57;100048.38;;;-2.01;98.02
42003;BME280;27693;50.506;30.832;2022-12-18T01:46:11;100030.48;;;-2.05;98.12
42003;BME280;27693;50.506;30.832;2022-12-18T01:48:40;100045.89;;;-1.95;98.08
42003;BME280;27693;50.506;30.832;2022-12-18T01:49:42;100040.47;;;-2.27;97.80
42003;BME280;27693;50.506;30.832;2022-12-18T01:50:44;100014.86;;;-2.36;98.12
42003;BME280;27693;50.506;30.832;2022-12-18T01:51:46;100037.05;;;-2.26;98.40
42003;BME280;27693;50.506;30.832;2022-12-18T01:52:58;100026.06;;;-2.23;98.35
42003;BME280;27693;50.506;30.832;2022-12-18T01:54:00;100052.33;;;-2.29;98.19
42003;BME280;27693;50.506;30.832;2022-12-18T01:55:04;100033.61;;;-2.30;98.19
42003;BME280;27693;50.506;30.832;2022-12-18T01:56:07;100025.07;;;-2.33;98.79
42003;BME280;27693;50.506;30.832;2022-12-18T01:57:11;100025.07;;;-2.33;98.79
42003;BME280;27693;50.506;30.832;2022-12-18T01:58:14;100023.34;;;-2.37;98.84
42003;BME280;27693;50.506;30.832;2022-12-18T01:59:16;100016.77;;;-2.17;99.02
42003;BME280;27693;50.506;30.832;2022-12-18T02:00:19;100055.91;;;-2.13;98.93
42003;BME280;27693;50.506;30.832;2022-12-18T02:01:23;100033.52;;;-2.41;98.61
42003;BME280;27693;50.506;30.832;2022-12-18T02:02:28;100037.15;;;-2.20;98.98
42003;BME280;27693;50.506;30.832;2022-12-18T02:03:30;100062.64;;;-2.20;98.80
42003;BME280;27693;50.506;30.832;2022-12-18T02:04:32;100062.47;;;-2.32;98.58
42003;BME280;27693;50.506;30.832;2022-12-18T02:05:52;100050.41;;;-2.46;98.84
42003;BME280;27693;50.506;30.832;2022-12-18T02:06:58;100050.47;;;-2.43;99.20
42003;BME280;27693;50.506;30.832;2022-12-18T02:09:31;100047.34;;;-2.20;99.02
42003;BME280;27693;50.506;30.832;2022-12-18T02:10:44;100050.67;;;-2.24;98.41
42003;BME280;27693;50.506;30.832;2022-12-18T02:14:35;100048.94;;;-2.28;98.53
42003;BME280;27693;50.506;30.832;2022-12-18T02:17:07;100049.85;;;-2.21;98.30
42003;BME280;27693;50.506;30.832;2022-12-18T02:18:19;100059.97;;;-2.29;98.19
42003;BME280;27693;50.506;30.832;2022-12-18T06:14:48;100465.60;;;-4.05;87.36
42003;BME280;27693;50.506;30.832;2022-12-18T06:15:50;100442.67;;;-4.08;87.13
42003;BME280;27693;50.506;30.832;2022-12-18T06:16:52;100435.43;;;-3.92;87.50
42003;BME280;27693;50.506;30.832;2022-12-18T06:17:54;100429.87;;;-3.76;87.53
42003;BME280;27693;50.506;30.832;2022-12-18T06:19:01;100454.74;;;-3.99;86.16
42003;BME280;27693;50.506;30.832;2022-12-18T06:20:04;100445.33;;;-4.03;86.35
42003;BME280;27693;50.506;30.832;2022-12-18T06:21:06;100456.50;;;-3.96;86.14
42003;BME280;27693;50.506;30.832;2022-12-18T06:22:08;100451.35;;;-3.99;85.83
42003;BME280;27693;50.506;30.832;2022-12-18T06:23:10;100448.32;;;-3.85;85.92
42003;BME280;27693;50.506;30.832;2022-12-18T06:24:12;100456.50;;;-3.96;85.36
42003;BME280;27693;50.506;30.832;2022-12-18T06:25:15;100454.41;;;-4.13;85.55
42003;BME280;27693;50.506;30.832;2022-12-18T06:26:18;100458.16;;;-3.98;85.97
42003;BME280;27693;50.506;30.832;2022-12-18T06:27:22;100458.16;;;-3.98;85.97
42003;BME280;27693;50.506;30.832;2022-12-18T06:28:24;100488.16;;;-3.85;86.02
42003;BME280;27693;50.506;30.832;2022-12-18T06:29:26;100488.16;;;-3.85;86.02
42003;BME280;27693;50.506;30.832;2022-12-18T06:30:28;100470.39;;;-3.83;85.51
42003;BME280;27693;50.506;30.832;2022-12-18T06:31:30;100463.06;;;-4.05;85.11
42003;BME280;27693;50.506;30.832;2022-12-18T06:32:33;100457.98;;;-4.05;85.48
42003;BME280;27693;50.506;30.832;2022-12-18T06:33:35;100470.17;;;-3.91;86.11
42003;BME280;27693;50.506;30.832;2022-12-18T07:34:34;100564.56;;;-4.11;85.25
42003;BME280;27693;50.506;30.832;2022-12-18T07:35:36;100601.33;;;-3.67;87.56
42003;BME280;27693;50.506;30.832;2022-12-18T07:36:39;100593.79;;;-3.64;88.23
42003;BME280;27693;50.506;30.832;2022-12-18T07:37:46;100584.48;;;-3.96;86.09
42003;BME280;27693;50.506;30.832;2022-12-18T07:38:49;100588.41;;;-3.42;89.80
42003;BME280;27693;50.506;30.832;2022-12-18T07:39:53;100588.55;;;-3.00;91.25
42003;BME280;27693;50.506;30.832;2022-12-18T07:41:05;100624.31;;;-3.64;87.20
42003;BME280;27693;50.506;30.832;2022-12-18T07:42:07;100606.92;;;-4.11;85.77
42003;BME280;27693;50.506;30.832;2022-12-18T07:43:09;100587.38;;;-4.14;86.36
42003;BME280;27693;50.506;30.832;2022-12-18T07:44:12;100600.63;;;-3.62;87.93
42003;BME280;27693;50.506;30.832;2022-12-18T07:45:14;100591.16;;;-3.99;85.79
42003;BME280;27693;50.506;30.832;2022-12-18T07:46:16;100598.48;;;-4.10;85.90
42003;BME280;27693;50.506;30.832;2022-12-18T07:47:18;100616.42;;;-3.74;87.38
42003;BME280;27693;50.506;30.832;2022-12-18T07:48:20;100612.66;;;-2.86;92.61
42003;BME280;27693;50.506;30.832;2022-12-18T07:49:22;100611.91;;;-3.52;88.40
42003;BME280;27693;50.506;30.832;2022-12-18T07:50:24;100604.55;;;-3.73;87.05
42003;BME280;27693;50.506;30.832;2022-12-18T07:51:27;100612.61;;;-3.24;90.45
42003;BME280;27693;50.506;30.832;2022-12-18T07:52:29;100623.67;;;-3.22;89.58
42003;BME280;27693;50.506;30.832;2022-12-18T07:53:32;100616.74;;;-3.61;86.27
42003;BME280;27693;50.506;30.832;2022-12-18T07:54:34;100599.11;;;-3.87;85.38
42003;BME280;27693;50.506;30.832;2022-12-18T07:55:36;100599.11;;;-3.87;86.27
42003;BME280;27693;50.506;30.832;2022-12-18T07:56:40;100631.52;;;-3.80;86.05
42003;BME280;27693;50.506;30.832;2022-12-18T07:57:43;100627.58;;;-3.69;87.19
42003;BME280;27693;50.506;30.832;2022-12-18T07:58:47;100624.44;;;-3.90;85.26
42003;BME280;27693;50.506;30.832;2022-12-18T07:59:50;100648.50;;;-4.09;85.01
42003;BME280;27693;50.506;30.832;2022-12-18T08:00:52;100640.39;;;-4.26;84.47
42003;BME280;27693;50.506;30.832;2022-12-18T08:01:54;100624.02;;;-4.36;85.49
42003;BME280;27693;50.506;30.832;2022-12-18T08:02:57;100638.70;;;-4.26;85.83
42003;BME280;27693;50.506;30.832;2022-12-18T08:03:59;100647.55;;;-4.13;87.52
42003;BME280;27693;50.506;30.832;2022-12-18T08:05:02;100647.55;;;-4.13;87.52
42003;BME280;27693;50.506;30.832;2022-12-18T08:06:06;100648.75;;;-4.29;86.35
42003;BME280;27693;50.506;30.832;2022-12-18T08:07:09;100641.94;;;-3.39;91.70
42003;BME280;27693;50.506;30.832;2022-12-18T08:08:10;100675.17;;;-3.64;88.24
42003;BME280;27693;50.506;30.832;2022-12-18T08:09:12;100675.17;;;-3.64;88.24
42003;BME280;27693;50.506;30.832;2022-12-18T08:10:15;100637.80;;;-3.97;87.27
42003;BME280;27693;50.506;30.832;2022-12-18T08:11:17;100641.89;;;-3.72;89.83
42003;BME280;27693;50.506;30.832;2022-12-18T08:12:19;100672.47;;;-3.39;91.27
42003;BME280;27693;50.506;30.832;2022-12-18T08:13:21;100655.98;;;-4.14;87.10
42003;BME280;27693;50.506;30.832;2022-12-18T08:14:23;100656.06;;;-4.11;87.32
42003;BME280;27693;50.506;30.832;2022-12-18T08:15:24;100637.55;;;-4.07;87.93
42003;BME280;27693;50.506;30.832;2022-12-18T08:16:27;100663.81;;;-3.12;94.35
42003;BME280;27693;50.506;30.832;2022-12-18T08:17:30;100676.33;;;-3.53;90.43
42003;BME280;27693;50.506;30.832;2022-12-18T08:18:34;100660.61;;;-4.01;88.61
42003;BME280;27693;50.506;30.832;2022-12-18T08:19:37;100650.02;;;-4.14;87.65
42003;BME280;27693;50.506;30.832;2022-12-18T08:20:42;100661.42;;;-4.02;87.54
42003;BME280;27693;50.506;30.832;2022-12-18T08:21:43;100654.41;;;-3.48;91.43
42003;BME280;27693;50.506;30.832;2022-12-18T08:22:45;100660.90;;;-3.59;91.26
42003;BME280;27693;50.506;30.832;2022-12-18T08:23:48;100659.72;;;-3.71;89.25
42003;BME280;27693;50.506;30.832;2022-12-18T08:24:52;100662.20;;;-3.74;90.38
42003;BME280;27693;50.506;30.832;2022-12-18T08:25:54;100650.47;;;-3.99;87.49
42003;BME280;27693;50.506;30.832;2022-12-18T08:26:56;100681.29;;;-3.88;88.52
42003;BME280;27693;50.506;30.832;2022-12-18T08:28:00;100666.47;;;-4.32;85.96
42003;BME280;27693;50.506;30.832;2022-12-18T08:29:02;100677.66;;;-4.25;86.43
42003;BME280;27693;50.506;30.832;2022-12-18T08:30:06;100680.57;;;-4.42;85.38
42003;BME280;27693;50.506;30.832;2022-12-18T08:31:10;100679.78;;;-4.12;88.25
42003;BME280;27693;50.506;30.832;2022-12-18T08:32:20;100675.05;;;-3.99;86.31
42003;BME280;27693;50.506;30.832;2022-12-18T08:33:22;100666.79;;;-4.21;85.22
42003;BME280;27693;50.506;30.832;2022-12-18T08:34:24;100675.67;;;-4.36;84.88
42003;BME280;27693;50.506;30.832;2022-12-18T08:35:26;100693.50;;;-4.34;85.28
42003;BME280;27693;50.506;30.832;2022-12-18T08:36:30;100688.81;;;-4.49;86.44
42003;BME280;27693;50.506;30.832;2022-12-18T08:37:32;100678.36;;;-4.58;86.15
42003;BME280;27693;50.506;30.832;2022-12-18T08:38:34;100678.25;;;-4.34;87.47
42003;BME280;27693;50.506;30.832;2022-12-18T08:39:36;100671.69;;;-3.98;89.47
42003;BME280;27693;50.506;30.832;2022-12-18T08:40:38;100682.70;;;-3.67;90.81
42003;BME280;27693;50.506;30.832;2022-12-18T08:41:40;100670.13;;;-3.63;90.93
42003;BME280;27693;50.506;30.832;2022-12-18T08:42:42;100679.42;;;-3.63;90.08
42003;BME280;27693;50.506;30.832;2022-12-18T08:43:44;100671.69;;;-3.98;88.32
42003;BME280;27693;50.506;30.832;2022-12-18T08:44:47;100667.12;;;-3.80;90.26
42003;BME280;27693;50.506;30.832;2022-12-18T08:45:49;100666.81;;;-3.91;88.11
42003;BME280;27693;50.506;30.832;2022-12-18T08:46:51;100729.91;;;-3.15;92.77
42003;BME280;27693;50.506;30.832;2022-12-18T08:47:53;100696.95;;;-3.74;87.74
42003;BME280;27693;50.506;30.832;2022-12-18T08:48:55;100682.99;;;-4.18;86.67
42003;BME280;27693;50.506;30.832;2022-12-18T08:49:57;100680.30;;;-4.22;86.93
42003;BME280;27693;50.506;30.832;2022-12-18T08:51:01;100673.85;;;-4.11;87.74
42003;BME280;27693;50.506;30.832;2022-12-18T08:52:03;100678.57;;;-3.94;88.82
42003;BME280;27693;50.506;30.832;2022-12-18T08:53:06;100672.10;;;-3.83;89.26
42003;BME280;27693;50.506;30.832;2022-12-18T08:54:12;100675.66;;;-3.78;88.81
42003;BME280;27693;50.506;30.832;2022-12-18T08:55:14;100678.88;;;-3.83;87.34
42003;BME280;27693;50.506;30.832;2022-12-18T08:56:16;100677.92;;;-3.57;89.53
42003;BME280;27693;50.506;30.832;2022-12-18T08:57:18;100680.48;;;-3.87;86.80
42003;BME280;27693;50.506;30.832;2022-12-18T08:58:20;100670.91;;;-3.96;86.68
42003;BME280;27693;50.506;30.832;2022-12-18T08:59:22;100687.02;;;-3.95;86.57
42003;BME280;27693;50.506;30.832;2022-12-18T09:00:24;100682.25;;;-4.13;85.84
42003;BME280;27693;50.506;30.832;2022-12-18T09:01:26;100681.12;;;-4.23;85.42
42003;BME280;27693;50.506;30.832;2022-12-18T09:02:29;100688.70;;;-4.25;85.48
42003;BME280;27693;50.506;30.832;2022-12-18T09:03:32;100694.00;;;-4.17;86.08
42003;BME280;27693;50.506;30.832;2022-12-18T09:04:34;100693.50;;;-4.34;85.21
42003;BME280;27693;50.506;30.832;2022-12-18T09:05:36;100702.44;;;-4.47;85.31
42003;BME280;27693;50.506;30.832;2022-12-18T09:06:39;100712.53;;;-4.49;85.06
42003;BME280;27693;50.506;30.832;2022-12-18T09:07:42;100721.64;;;-4.55;84.76
42003;BME280;27693;50.506;30.832;2022-12-18T09:08:44;100704.13;;;-4.46;85.23
42003;BME280;27693;50.506;30.832;2022-12-18T09:09:46;100704.48;;;-4.62;84.50
42003;BME280;27693;50.506;30.832;2022-12-18T09:10:49;100711.22;;;-4.63;84.81
42003;BME280;27693;50.506;30.832;2022-12-18T09:11:51;100710.95;;;-4.45;85.43
42003;BME280;27693;50.506;30.832;2022-12-18T09:12:53;100722.33;;;-4.34;85.16
42003;BME280;27693;50.506;30.832;2022-12-18T09:13:55;100729.27;;;-4.55;83.73
42003;BME280;27693;50.506;30.832;2022-12-18T09:14:58;100737.58;;;-4.59;82.87
42003;BME280;27693;50.506;30.832;2022-12-18T09:15:59;100707.09;;;-4.87;82.85
42003;BME280;27693;50.506;30.832;2022-12-18T09:17:01;100703.06;;;-4.80;83.06
42003;BME280;27693;50.506;30.832;2022-12-18T09:18:03;100711.98;;;-4.66;83.36
42003;BME280;27693;50.506;30.832;2022-12-18T09:19:06;100710.67;;;-4.54;83.27
42003;BME280;27693;50.506;30.832;2022-12-18T09:20:09;100708.75;;;-4.61;82.56
42003;BME280;27693;50.506;30.832;2022-12-18T09:21:14;100740.73;;;-4.67;82.83
42003;BME280;27693;50.506;30.832;2022-12-18T09:22:16;100710.56;;;-4.57;83.24
42003;BME280;27693;50.506;30.832;2022-12-18T09:23:19;100710.56;;;-4.57;83.24
42003;BME280;27693;50.506;30.832;2022-12-18T09:24:21;100729.53;;;-4.46;83.42
42003;BME280;27693;50.506;30.832;2022-12-18T09:25:22;100712.97;;;-4.35;82.87
42003;BME280;27693;50.506;30.832;2022-12-18T09:26:26;100751.59;;;-4.45;82.58
42003;BME280;27693;50.506;30.832;2022-12-18T09:27:28;100753.85;;;-4.54;82.84
42003;BME280;27693;50.506;30.832;2022-12-18T09:28:31;100776.80;;;-4.77;82.75
42003;BME280;27693;50.506;30.832;2022-12-18T09:29:35;100729.13;;;-4.86;83.02
42003;BME280;27693;50.506;30.832;2022-12-18T09:30:38;100752.42;;;-4.72;83.02
42003;BME280;27693;50.506;30.832;2022-12-18T09:31:40;100724.30;;;-4.78;83.29
42003;BME280;27693;50.506;30.832;2022-12-18T09:32:42;100726.95;;;-4.75;83.24
42003;BME280;27693;50.506;30.832;2022-12-18T09:33:45;100711.80;;;-4.72;83.41
42003;BME280;27693;50.506;30.832;2022-12-18T09:34:48;100723.27;;;-4.57;83.78
42003;BME280;27693;50.506;30.832;2022-12-18T09:35:50;100720.22;;;-4.47;83.73
42003;BME280;27693;50.506;30.832;2022-12-18T09:36:52;100713.05;;;-4.31;83.86
42003;BME280;27693;50.506;30.832;2022-12-18T09:37:54;100729.25;;;-4.28;83.23
42003;BME280;27693;50.506;30.832;2022-12-18T09:38:56;100727.78;;;-4.21;83.07
42003;BME280;27693;50.506;30.832;2022-12-18T09:39:58;100724.31;;;-4.23;82.65
42003;BME280;27693;50.506;30.832;2022-12-18T09:41:15;100746.92;;;-4.32;82.21
42003;BME280;27693;50.506;30.832;2022-12-18T09:42:13;100725.37;;;-4.44;82.37
42003;BME280;27693;50.506;30.832;2022-12-18T09:43:22;100739.92;;;-4.40;82.46
42003;BME280;27693;50.506;30.832;2022-12-18T09:44:36;100760.02;;;-4.46;82.55
42003;BME280;27693;50.506;30.832;2022-12-18T09:45:44;100732.61;;;-4.56;82.63
42003;BME280;27693;50.506;30.832;2022-12-18T09:47:07;100739.70;;;-4.46;83.09
42003;BME280;27693;50.506;30.832;2022-12-18T09:48:19;100748.77;;;-4.54;83.17
42003;BME280;27693;50.506;30.832;2022-12-18T09:49:23;100740.34;;;-4.53;83.23
42003;BME280;27693;50.506;30.832;2022-12-18T09:50:37;100735.34;;;-4.50;83.43
42003;BME280;27693;50.506;30.832;2022-12-18T09:51:47;100754.20;;;-4.43;83.21
42003;BME280;27693;50.506;30.832;2022-12-18T09:52:52;100732.72;;;-4.53;83.05
42003;BME280;27693;50.506;30.832;2022-12-18T09:53:58;100760.66;;;-4.53;83.44
42003;BME280;27693;50.506;30.832;2022-12-18T09:55:25;100736.88;;;-4.55;83.29
42003;BME280;27693;50.506;30.832;2022-12-18T09:56:29;100736.03;;;-4.28;83.87
42003;BME280;27693;50.506;30.832;2022-12-18T09:57:35;100747.47;;;-4.41;82.94
42003;BME280;27693;50.506;30.832;2022-12-18T09:58:45;100734.48;;;-4.23;83.49
42003;BME280;27693;50.506;30.832;2022-12-18T14:27:38;101128.24;;;-5.14;91.19
42003;BME280;27693;50.506;30.832;2022-12-18T14:28:43;101131.42;;;-5.20;91.37
42003;BME280;27693;50.506;30.832;2022-12-18T14:29:46;101126.40;;;-5.18;91.42
42003;BME280;27693;50.506;30.832;2022-12-18T14:30:48;101143.11;;;-5.02;92.45
42003;BME280;27693;50.506;30.832;2022-12-18T14:33:19;101138.05;;;-4.81;93.31
42003;BME280;27693;50.506;30.832;2022-12-18T14:34:25;101143.13;;;-4.81;92.65
42003;BME280;27693;50.506;30.832;2022-12-18T14:35:28;101144.48;;;-4.89;92.26
42003;BME280;27693;50.506;30.832;2022-12-18T14:36:31;101144.07;;;-4.56;93.53
42003;BME280;27693;50.506;30.832;2022-12-18T14:37:34;101145.10;;;-4.74;92.68
42003;BME280;27693;50.506;30.832;2022-12-18T14:38:40;101154.08;;;-4.82;92.47
42003;BME280;27693;50.506;30.832;2022-12-18T14:40:00;101148.78;;;-4.66;92.95
42003;BME280;27693;50.506;30.832;2022-12-18T14:41:10;101156.97;;;-4.73;92.22
42003;BME280;27693;50.506;30.832;2022-12-18T14:42:14;101169.88;;;-4.89;91.88
42003;BME280;27693;50.506;30.832;2022-12-18T14:43:19;101154.39;;;-4.95;92.17
42003;BME280;27693;50.506;30.832;2022-12-18T14:44:23;101163.80;;;-4.93;92.17
42003;BME280;27693;50.506;30.832;2022-12-18T14:45:36;101164.60;;;-4.94;91.82
42003;BME280;27693;50.506;30.832;2022-12-18T14:46:48;101185.21;;;-4.86;92.18
42003;BME280;27693;50.506;30.832;2022-12-18T14:47:49;101185.59;;;-4.77;92.99
42003;BME280;27693;50.506;30.832;2022-12-18T14:48:53;101174.31;;;-4.62;92.68
42003;BME280;27693;50.506;30.832;2022-12-18T14:49:56;101165.78;;;-4.86;91.75
42003;BME280;27693;50.506;30.832;2022-12-18T16:06:56;101290.59;;;-5.35;91.15
42003;BME280;27693;50.506;30.832;2022-12-18T16:08:03;101305.42;;;-5.63;90.58
42003;BME280;27693;50.506;30.832;2022-12-18T16:09:05;101299.04;;;-5.54;90.86
42003;BME280;27693;50.506;30.832;2022-12-18T16:10:09;101296.59;;;-5.53;90.49
42003;BME280;27693;50.506;30.832;2022-12-18T16:11:21;101322.11;;;-5.68;90.52
42003;BME280;27693;50.506;30.832;2022-12-18T16:12:24;101298.37;;;-5.70;90.77
42003;BME280;27693;50.506;30.832;2022-12-18T16:13:26;101301.42;;;-5.77;90.86
42003;BME280;27693;50.506;30.832;2022-12-18T16:14:29;101302.20;;;-5.78;90.87
42003;BME280;27693;50.506;30.832;2022-12-18T16:15:32;101295.67;;;-5.73;90.96
42003;BME280;27693;50.506;30.832;2022-12-18T16:16:35;101318.22;;;-5.79;90.89
42003;BME280;27693;50.506;30.832;2022-12-18T16:17:38;101327.47;;;-5.80;91.03
42003;BME280;27693;50.506;30.832;2022-12-18T16:18:40;101328.86;;;-5.86;91.02